Time;durP1;ratioP1;P1;durP2;ratioP2;P2;SDS_P1;SDS_P2;PMS_P1;PMS_P2;Temp;Humidity;BMP_temperature;BMP_pressure;BME280_temperature;BME280_humidity;BME280_pressure;Samples;Min_cycle;Max_cycle;Signal;HPM_P1;HPM_P2
2022/06/05 00:01:44;;;;;;;20.45;14.38;;;;;;;20.00;58.13;101637.88;4990956;28;20025;-75
2022/06/05 00:04:12;;;;;;;24.77;14.98;;;;;;;19.98;58.22;101641.38;4992294;28;20061;-75
2022/06/05 00:06:59;;;;;;;22.67;14.73;;;;;;;19.96;57.72;101648.47;4992408;28;20515;-75
2022/06/05 00:09:30;;;;;;;22.30;14.30;;;;;;;19.98;59.06;101644.03;4991953;28;20516;-75
2022/06/05 00:12:01;;;;;;;22.02;14.20;;;;;;;19.95;57.91;101636.13;4992596;28;20022;-75
2022/06/05 00:14:26;;;;;;;23.67;14.23;;;;;;;19.92;58.13;101630.84;4990809;28;20124;-75
2022/06/05 00:16:52;;;;;;;22.58;14.20;;;;;;;19.99;58.31;101621.13;4991800;28;20169;-75
2022/06/05 00:19:17;;;;;;;20.60;14.23;;;;;;;19.94;58.92;101618.50;4992119;28;20517;-75
2022/06/05 00:21:42;;;;;;;21.27;13.57;;;;;;;19.93;57.60;101622.03;4991257;28;20371;-75
2022/06/05 00:24:08;;;;;;;23.75;14.23;;;;;;;19.89;58.36;101625.56;4992138;28;20045;-75
2022/06/05 00:26:41;;;;;;;23.48;14.45;;;;;;;19.90;57.91;101622.03;4993126;28;20035;-75
2022/06/05 00:29:35;;;;;;;23.15;13.63;;;;;;;19.87;57.76;101611.47;4992058;28;20120;-75
2022/06/05 00:32:12;;;;;;;21.40;14.10;;;;;;;19.88;57.92;101618.50;4991094;28;20034;-75
2022/06/05 00:34:38;;;;;;;19.90;14.73;;;;;;;19.82;57.66;101613.22;4991285;28;20037;-75
2022/06/05 00:37:12;;;;;;;21.95;14.52;;;;;;;19.80;57.29;101609.72;4985318;28;20026;-75
2022/06/05 00:40:05;;;;;;;21.23;14.15;;;;;;;19.86;58.52;101600.91;4992067;28;20034;-75
2022/06/05 00:42:33;;;;;;;21.40;14.82;;;;;;;19.80;57.95;101596.50;4991806;28;20787;-76
2022/06/05 00:45:01;;;;;;;23.52;14.85;;;;;;;19.68;58.27;101589.41;4991922;28;20026;-75
2022/06/05 00:47:31;;;;;;;22.95;14.85;;;;;;;19.76;57.20;101597.34;4991274;28;20034;-75
2022/06/05 00:50:00;;;;;;;23.67;14.68;;;;;;;19.72;58.31;101590.31;4991305;28;20433;-75
2022/06/05 00:52:30;;;;;;;23.80;14.57;;;;;;;19.71;58.08;101585.91;4988701;28;20022;-75
2022/06/05 00:54:56;;;;;;;23.77;15.35;;;;;;;19.72;57.32;101582.38;4990876;28;20026;-75
2022/06/05 00:57:22;;;;;;;22.92;14.68;;;;;;;19.70;57.36;101585.03;4987953;28;20078;-75
2022/06/05 00:59:50;;;;;;;22.08;14.32;;;;;;;19.66;57.73;101585.03;4989638;28;20060;-75
2022/06/05 01:02:17;;;;;;;19.23;14.23;;;;;;;19.70;57.83;101581.50;4990134;28;20056;-75
2022/06/05 01:04:46;;;;;;;22.55;15.52;;;;;;;19.69;57.25;101595.59;4991553;28;20050;-75
2022/06/05 01:07:11;;;;;;;;;;;;;;;19.83;57.20;101580.63;4991222;28;20405;-75
2022/06/05 01:09:39;;;;;;;20.48;13.82;;;;;;;19.68;57.72;101594.72;4991754;28;20001;-75
2022/06/05 01:12:26;;;;;;;22.48;15.25;;;;;;;19.71;57.23;101599.13;4989668;28;20454;-75
2022/06/05 01:15:10;;;;;;;26.75;15.10;;;;;;;19.61;57.44;101582.38;4991425;28;20030;-75
2022/06/05 01:17:41;;;;;;;21.90;15.15;;;;;;;19.62;56.65;101590.34;4991100;28;20042;-74
2022/06/05 01:20:22;;;;;;;22.98;14.90;;;;;;;19.54;56.95;101591.25;4990680;28;20031;-75
2022/06/05 01:23:24;;;;;;;23.70;14.82;;;;;;;19.58;57.28;101590.31;4990880;28;20034;-75
2022/06/05 01:26:18;;;;;;;22.35;14.80;;;;;;;19.59;59.62;101585.03;4979033;28;20022;-75
2022/06/05 01:28:55;;;;;;;24.42;15.25;;;;;;;19.55;56.79;101614.13;4972797;28;20038;-75
2022/06/05 01:31:27;;;;;;;23.33;16.00;;;;;;;19.49;57.41;101646.72;4990769;28;20543;-75
2022/06/05 01:34:05;;;;;;;21.83;15.20;;;;;;;19.49;58.17;101635.28;4989873;28;20026;-76
2022/06/05 01:36:42;;;;;;;19.60;14.20;;;;;;;19.46;58.92;101612.38;4990769;28;20028;-75
2022/06/05 01:39:13;;;;;;;25.67;15.13;;;;;;;19.42;58.62;101644.97;4990343;28;20059;-75
2022/06/05 01:41:45;;;;;;;22.73;14.82;;;;;;;19.42;58.49;101660.81;4989633;28;20625;-75
2022/06/05 01:44:17;;;;;;;24.70;14.77;;;;;;;19.37;58.74;101630.91;4989191;28;20022;-75
2022/06/05 01:46:43;;;;;;;25.35;16.02;;;;;;;19.36;59.91;101595.63;4990184;28;20477;-75
2022/06/05 01:49:20;;;;;;;23.60;15.45;;;;;;;19.34;60.49;101589.47;4988283;28;20041;-75
2022/06/05 01:51:54;;;;;;;22.83;15.75;;;;;;;19.38;59.00;101617.69;4988931;28;20033;-75
2022/06/05 01:54:26;;;;;;;24.15;15.55;;;;;;;19.34;57.99;101613.28;4988937;28;20397;-75
2022/06/05 01:56:57;;;;;;;22.80;15.68;;;;;;;19.32;59.26;101614.13;4989727;28;20078;-75
2022/06/05 01:59:48;;;;;;;23.15;15.93;;;;;;;19.34;58.52;101593.91;4988357;28;20116;-75
2022/06/05 02:02:18;;;;;;;21.20;14.88;;;;;;;19.30;59.37;101587.72;4990040;28;20101;-75
2022/06/05 02:04:55;;;;;;;21.77;15.68;;;;;;;19.32;60.37;101575.41;4990248;28;20061;-75
2022/06/05 02:07:26;;;;;;;23.60;15.43;;;;;;;19.26;60.69;101571.00;4990700;28;20560;-75
2022/06/05 02:09:59;;;;;;;23.45;16.13;;;;;;;19.22;60.61;101556.03;4989749;28;20502;-75
2022/06/05 02:12:25;;;;;;;22.23;16.35;;;;;;;19.22;60.38;101548.09;4990351;28;20049;-75
2022/06/05 02:14:50;;;;;;;26.80;16.85;;;;;;;19.21;61.16;101545.47;4988989;28;20509;-75
2022/06/05 02:17:16;;;;;;;24.00;16.80;;;;;;;19.18;61.04;101529.63;4990272;28;20449;-75
2022/06/05 02:19:43;;;;;;;24.35;17.23;;;;;;;19.14;61.00;101526.09;4989919;28;20038;-75
2022/06/05 02:22:27;;;;;;;24.85;17.17;;;;;;;19.12;61.17;101519.94;4989740;28;20049;-75
2022/06/05 02:24:55;;;;;;;24.63;16.80;;;;;;;19.11;60.83;101510.25;4990508;28;20022;-75
2022/06/05 02:27:23;;;;;;;26.30;16.45;;;;;;;19.10;61.32;101501.44;4990129;28;20096;-75
2022/06/05 02:29:50;;;;;;;24.20;17.02;;;;;;;19.05;61.19;101502.34;4988176;28;20025;-75
2022/06/05 02:32:25;;;;;;;22.60;16.35;;;;;;;19.05;60.86;101502.34;4988957;28;20022;-75
2022/06/05 02:35:19;;;;;;;24.33;15.70;;;;;;;19.07;60.64;101497.91;4991092;28;20023;-75
2022/06/05 02:38:22;;;;;;;25.48;16.55;;;;;;;19.04;60.79;101490.00;4987242;28;20092;-75
2022/06/05 02:40:50;;;;;;;27.35;15.88;;;;;;;19.00;61.20;101486.50;4984172;28;20026;-75
2022/06/05 02:43:28;;;;;;;25.58;16.35;;;;;;;18.95;61.33;101482.97;4989799;28;20045;-75
2022/06/05 02:46:08;;;;;;;23.55;16.35;;;;;;;18.92;61.19;101472.41;4990688;28;20026;-75
2022/06/05 02:48:49;;;;;;;23.83;16.20;;;;;;;18.91;61.10;101462.72;4988859;28;20036;-75
2022/06/05 02:51:26;;;;;;;27.77;16.63;;;;;;;18.87;61.37;101460.97;4990377;28;20537;-75
2022/06/05 02:53:55;;;;;;;24.42;16.15;;;;;;;18.82;61.28;101453.00;4990678;28;20497;-75
2022/06/05 02:56:22;;;;;;;25.88;17.45;;;;;;;18.84;60.91;101451.28;4984542;28;20026;-75
2022/06/05 02:58:49;;;;;;;23.75;16.13;;;;;;;18.88;61.70;101442.47;4990694;28;20037;-75
2022/06/05 03:04:00;;;;;;;25.55;15.15;;;;;;;18.77;61.03;101434.53;4990617;28;20073;-75
2022/06/05 03:06:29;;;;;;;24.45;15.85;;;;;;;18.79;61.23;101437.19;4989733;28;20506;-75
2022/06/05 03:08:54;;;;;;;25.90;15.65;;;;;;;18.80;61.58;101427.50;4989130;28;20077;-75
2022/06/05 03:11:20;;;;;;;24.35;15.13;;;;;;;18.73;61.02;101416.06;4982051;28;20035;-75
2022/06/05 03:13:45;;;;;;;26.13;15.75;;;;;;;18.71;61.58;101408.16;4986037;28;20512;-75
2022/06/05 03:16:10;;;;;;;25.10;14.82;;;;;;;18.69;61.58;101407.25;4990469;28;20505;-75
2022/06/05 03:18:37;;;;;;;27.40;15.00;;;;;;;18.68;61.92;101401.97;4988853;28;20030;-75
2022/06/05 03:21:03;;;;;;;27.48;15.20;;;;;;;18.61;61.47;101403.78;4977580;28;20026;-75
2022/06/05 03:23:29;;;;;;;26.15;14.85;;;;;;;18.58;61.01;101391.44;4989703;28;20035;-75
2022/06/05 03:25:55;;;;;;;25.67;14.82;;;;;;;18.58;61.60;101390.53;4988844;28;20026;-75
2022/06/05 03:28:21;;;;;;;23.23;14.07;;;;;;;18.58;61.14;101386.16;4988969;28;20370;-75
2022/06/05 03:30:46;;;;;;;26.65;14.38;;;;;;;18.53;60.83;101382.63;4989854;28;20053;-75
2022/06/05 03:33:11;;;;;;;24.08;14.43;;;;;;;18.55;60.44;101390.56;4992706;28;20041;-75
2022/06/05 03:35:43;;;;;;;23.67;13.75;;;;;;;18.52;61.51;101396.72;4993265;28;20022;-75
2022/06/05 03:38:09;;;;;;;24.38;14.45;;;;;;;18.49;60.18;101402.00;4992005;28;20034;-75
2022/06/05 03:40:38;;;;;;;25.77;14.10;;;;;;;18.52;59.97;101420.47;4992439;28;20026;-75
2022/06/05 03:43:04;;;;;;;26.63;14.57;;;;;;;18.58;59.99;101425.75;4992858;28;20022;-75
2022/06/05 03:45:29;;;;;;;21.85;13.95;;;;;;;18.56;59.16;101424.00;4992122;28;20509;-75
2022/06/05 03:47:54;;;;;;;26.35;14.25;;;;;;;18.56;59.92;101422.22;4992749;28;20038;-75
2022/06/05 03:50:20;;;;;;;27.13;14.68;;;;;;;18.54;60.29;101417.84;4992560;28;20332;-75
2022/06/05 03:52:45;;;;;;;24.02;13.82;;;;;;;18.53;60.37;101419.59;4992411;28;20129;-75
2022/06/05 03:55:14;;;;;;;24.73;14.00;;;;;;;18.51;61.46;101416.09;4991626;28;20134;-75
2022/06/05 03:57:40;;;;;;;24.10;15.40;;;;;;;18.49;58.52;101425.75;4992705;28;20504;-75
2022/06/05 04:00:07;;;;;;;21.75;13.70;;;;;;;18.43;60.34;101428.38;4990674;28;20088;-75
2022/06/05 04:02:32;;;;;;;22.10;13.63;;;;;;;18.39;60.87;101432.78;4990403;28;20061;-75
2022/06/05 04:05:04;;;;;;;23.98;13.80;;;;;;;18.39;60.89;101427.53;4992069;28;20077;-75
2022/06/05 04:07:29;;;;;;;24.17;13.55;;;;;;;18.34;60.91;101428.41;4981470;28;20034;-75
2022/06/05 04:09:55;;;;;;;23.40;13.68;;;;;;;18.32;60.83;101432.78;4992448;28;20030;-75
2022/06/05 04:12:20;;;;;;;24.52;13.85;;;;;;;18.32;61.39;101424.84;4991835;28;20542;-75
2022/06/05 04:14:45;;;;;;;24.52;14.57;;;;;;;18.28;61.40;101417.81;4992477;28;20045;-75
2022/06/05 04:17:11;;;;;;;25.23;13.93;;;;;;;18.24;61.11;101417.81;4991194;28;20034;-75
2022/06/05 04:19:37;;;;;;;23.75;14.05;;;;;;;18.22;61.78;101413.44;4993067;28;20054;-75
2022/06/05 04:22:04;;;;;;;23.52;14.25;;;;;;;18.25;61.96;101410.81;4992394;28;20030;-75
2022/06/05 04:24:29;;;;;;;24.42;14.20;;;;;;;18.22;61.95;101400.25;4991687;28;20414;-75
2022/06/05 04:26:54;;;;;;;21.40;14.05;;;;;;;18.20;61.89;101405.50;4992110;28;20034;-75
2022/06/05 04:29:20;;;;;;;24.75;13.70;;;;;;;18.17;61.17;101404.63;4991460;28;20084;-75
2022/06/05 04:31:47;;;;;;;23.80;13.70;;;;;;;18.19;62.21;101411.66;4991598;28;20089;-75
2022/06/05 04:34:15;;;;;;;23.30;14.07;;;;;;;18.18;62.00;101406.41;4991172;28;20096;-75
2022/06/05 04:36:41;;;;;;;24.35;14.40;;;;;;;18.15;61.49;101403.75;4991093;28;20509;-75
2022/06/05 04:39:07;;;;;;;26.35;14.18;;;;;;;18.17;60.94;101408.13;4991540;28;20034;-75
2022/06/05 04:41:33;;;;;;;23.58;14.02;;;;;;;18.16;61.61;101408.13;4991631;28;20030;-75
2022/06/05 04:43:58;;;;;;;23.80;14.00;;;;;;;18.13;61.92;101406.38;4990520;28;20056;-75
2022/06/05 04:46:26;;;;;;;23.27;14.05;;;;;;;18.10;62.04;101400.22;4990717;28;20026;-75
2022/06/05 04:48:51;;;;;;;23.42;13.75;;;;;;;18.08;62.28;101395.81;4990410;28;20033;-75
2022/06/05 04:51:18;;;;;;;25.80;14.60;;;;;;;18.11;61.93;101404.63;4976769;28;20426;-75
2022/06/05 04:56:34;;;;;;;26.15;14.52;;;;;;;18.00;62.47;101397.59;5124070;23;20065;-96
2022/06/05 04:59:01;;;;;;;25.67;14.90;;;;;;;18.07;62.57;101401.09;4981164;23;20047;-75
2022/06/05 05:01:32;;;;;;;26.90;14.52;;;;;;;18.02;63.00;101406.38;4971728;28;20106;-75
2022/06/05 05:04:01;;;;;;;23.35;14.80;;;;;;;18.05;62.48;101402.84;4971944;28;20394;-75
2022/06/05 05:06:28;;;;;;;26.55;14.43;;;;;;;18.06;62.78;101401.97;4971259;28;20029;-75
2022/06/05 05:08:53;;;;;;;24.75;14.40;;;;;;;18.10;62.05;101397.59;4971842;28;20018;-75
2022/06/05 05:11:19;;;;;;;26.65;15.15;;;;;;;18.07;62.96;101398.44;4972619;28;20473;-75
2022/06/05 05:13:45;;;;;;;27.00;15.60;;;;;;;18.04;62.16;101414.28;4959677;28;20759;-75
2022/06/05 05:16:11;;;;;;;25.13;15.13;;;;;;;18.06;61.81;101407.22;4966370;28;20041;-75
2022/06/05 05:18:38;;;;;;;28.70;14.85;;;;;;;18.06;60.93;101420.41;4966968;28;20050;-75
2022/06/05 05:21:18;;;;;;;25.77;15.13;;;;;;;18.06;62.30;101417.78;4972564;28;20077;-75
2022/06/05 05:23:44;;;;;;;28.00;15.68;;;;;;;18.04;61.58;101414.28;4971089;28;20133;-75
2022/06/05 05:26:10;;;;;;;26.67;14.90;;;;;;;18.05;61.34;101416.91;4971071;28;20042;-75
2022/06/05 05:28:36;;;;;;;28.58;15.50;;;;;;;18.06;61.54;101412.50;4971766;28;20482;-76
2022/06/05 05:31:05;;;;;;;24.60;14.57;;;;;;;18.06;61.14;101413.41;4971642;28;20041;-75
2022/06/05 05:33:31;;;;;;;23.83;15.32;;;;;;;18.06;61.12;101407.22;4986196;28;20114;-75
2022/06/05 05:35:56;;;;;;;26.75;15.13;;;;;;;18.07;61.54;101411.63;4985363;28;20181;-75
2022/06/05 05:38:21;;;;;;;25.55;16.08;;;;;;;18.05;61.89;101410.78;4960323;28;20110;-75
2022/06/05 05:43:30;;;;;;;27.25;15.38;;;;;;;18.08;62.01;101406.38;4970670;28;20029;-76
2022/06/05 05:45:56;;;;;;;24.45;15.18;;;;;;;18.11;61.69;101409.91;4986233;28;20034;-75
2022/06/05 05:48:21;;;;;;;28.17;16.35;;;;;;;18.10;61.57;101409.00;4961040;28;20487;-75
2022/06/05 05:50:47;;;;;;;26.60;16.10;;;;;;;18.13;61.89;101409.00;4968695;28;20157;-75
2022/06/05 05:53:12;;;;;;;27.23;15.65;;;;;;;18.19;61.91;101408.13;4956659;28;20022;-75
2022/06/05 05:55:37;;;;;;;25.23;15.07;;;;;;;18.18;63.60;101407.25;4965754;28;20398;-75
2022/06/05 05:58:03;;;;;;;26.00;16.17;;;;;;;18.13;61.83;101405.50;4951856;28;20530;-75
2022/06/05 06:00:28;;;;;;;26.98;15.38;;;;;;;18.10;61.77;101395.81;4951459;28;20110;-75
2022/06/05 06:02:54;;;;;;;25.08;15.75;;;;;;;18.19;62.64;101393.22;4951094;28;20046;-75
2022/06/05 06:05:19;;;;;;;25.58;15.63;;;;;;;18.16;62.48;101387.03;4942292;28;20078;-76
2022/06/05 06:07:45;;;;;;;24.55;14.93;;;;;;;18.18;62.18;101385.28;4950146;28;20020;-75
2022/06/05 06:10:11;;;;;;;28.90;16.25;;;;;;;18.15;62.02;101386.16;4951026;28;20031;-75
2022/06/05 06:12:36;;;;;;;28.63;16.10;;;;;;;18.12;62.79;101366.81;4951494;28;20058;-75
2022/06/05 06:15:03;;;;;;;28.98;17.17;;;;;;;18.13;61.69;101363.28;4951846;28;20038;-75
2022/06/05 06:17:28;;;;;;;26.95;16.45;;;;;;;18.14;62.61;101367.69;4951557;28;20106;-75
2022/06/05 06:19:53;;;;;;;26.83;16.75;;;;;;;18.14;63.42;101352.75;4952524;28;20447;-75
2022/06/05 06:22:19;;;;;;;26.42;17.00;;;;;;;18.17;62.66;101346.59;4956232;28;20038;-75
2022/06/05 06:24:45;;;;;;;27.98;15.90;;;;;;;18.19;64.26;101358.91;4951725;28;20447;-75
2022/06/05 06:27:10;;;;;;;28.00;17.63;;;;;;;18.17;63.40;101358.00;4949029;28;20031;-75
2022/06/05 06:29:36;;;;;;;28.92;17.65;;;;;;;18.21;62.43;101351.88;4951388;28;20055;-75
2022/06/05 06:32:02;;;;;;;30.45;17.73;;;;;;;18.23;62.93;101342.22;4951628;28;20049;-75
2022/06/05 06:34:27;;;;;;;29.35;17.58;;;;;;;18.24;62.93;101343.94;4952304;28;20062;-75
2022/06/05 06:36:52;;;;;;;28.33;16.75;;;;;;;18.30;62.44;101337.78;4953711;28;20054;-75
2022/06/05 06:39:19;;;;;;;30.20;18.55;;;;;;;18.30;63.16;101340.44;4951477;28;20035;-75
2022/06/05 06:41:45;;;;;;;28.83;18.48;;;;;;;18.35;64.28;101328.13;4949810;28;20060;-75
2022/06/05 06:44:10;;;;;;;32.05;18.25;;;;;;;18.39;64.40;101326.34;4949563;28;20031;-75
2022/06/05 06:46:36;;;;;;;30.00;17.92;;;;;;;18.42;64.31;101323.72;4952075;28;20035;-75
2022/06/05 06:49:02;;;;;;;29.67;18.13;;;;;;;18.46;64.73;101322.81;4949040;28;20035;-75
2022/06/05 06:51:27;;;;;;;32.03;19.38;;;;;;;18.47;65.06;101314.03;4950364;28;20050;-75
2022/06/05 06:53:52;;;;;;;31.38;18.95;;;;;;;18.52;63.73;101306.97;4951628;28;20431;-75
2022/06/05 06:56:24;;;;;;;28.77;18.02;;;;;;;18.57;65.56;101304.34;4938820;28;20474;-75
2022/06/05 06:58:50;;;;;;;31.88;19.73;;;;;;;18.60;64.68;101307.84;4949236;28;20055;-75
2022/06/05 07:01:15;;;;;;;28.45;18.73;;;;;;;18.64;63.09;101329.84;4950325;28;20039;-75
2022/06/05 07:03:41;;;;;;;32.40;19.30;;;;;;;18.69;63.51;101324.56;4950586;28;20027;-75
2022/06/05 07:06:10;;;;;;;32.25;18.98;;;;;;;18.70;63.60;101316.63;4950760;28;20038;-75
2022/06/05 07:08:35;;;;;;;;;;;;;;;18.82;62.80;101318.34;4955843;28;20035;-75
2022/06/05 07:11:05;;;;;;;38.00;21.90;;;;;;;18.82;63.58;101302.50;4954728;28;19918;-75
2022/06/05 07:13:30;;;;;;;33.63;20.73;;;;;;;18.82;62.77;101297.22;4954034;28;20046;-75
2022/06/05 07:15:56;;;;;;;34.78;21.25;;;;;;;18.85;62.98;101297.22;4954685;28;20418;-75
2022/06/05 07:18:21;;;;;;;32.97;20.83;;;;;;;18.88;62.85;101285.81;4954402;28;20054;-76
2022/06/05 07:20:46;;;;;;;40.30;22.55;;;;;;;18.90;64.20;101287.56;4954500;28;20777;-75
2022/06/05 07:23:13;;;;;;;35.65;21.40;;;;;;;18.94;64.97;101291.97;4952836;28;20078;-76
2022/06/05 07:25:43;;;;;;;39.25;22.85;;;;;;;18.98;63.35;101294.59;4953890;28;20513;-76
2022/06/05 07:28:09;;;;;;;38.78;22.90;;;;;;;19.02;63.45;101284.00;4953334;28;20039;-76
2022/06/05 07:30:34;;;;;;;37.67;22.73;;;;;;;19.07;65.10;101276.03;4954891;28;20034;-76
2022/06/05 07:32:59;;;;;;;36.00;21.92;;;;;;;19.13;62.79;101283.94;4954510;28;20063;-76
2022/06/05 07:35:25;;;;;;;40.30;23.13;;;;;;;19.15;63.27;101274.25;4954183;28;20534;-76
2022/06/05 07:37:50;;;;;;;34.53;23.05;;;;;;;19.18;62.41;101268.94;4953500;28;20132;-76
2022/06/05 07:40:16;;;;;;;37.72;23.40;;;;;;;19.25;63.19;101269.81;4953567;28;20070;-77
2022/06/05 07:42:43;;;;;;;38.47;23.58;;;;;;;19.26;62.88;101268.91;4953561;28;20027;-75
2022/06/05 07:45:11;;;;;;;39.97;23.83;;;;;;;19.28;62.89;101262.72;4954852;28;20066;-75
2022/06/05 07:47:37;;;;;;;35.70;23.15;;;;;;;19.34;63.89;101266.22;4953476;28;20053;-75
2022/06/05 07:50:03;;;;;;;34.70;22.90;;;;;;;19.36;63.27;101260.03;4953397;28;20070;-75
2022/06/05 07:55:13;;;;;;;34.28;22.27;;;;;;;19.37;62.15;101261.78;4941198;28;20063;-75
2022/06/05 07:57:38;;;;;;;35.20;23.13;;;;;;;19.41;62.99;101257.38;4953609;28;20051;-75
2022/06/05 08:00:07;;;;;;;37.85;23.88;;;;;;;19.44;63.33;101249.44;4953991;28;20110;-75
2022/06/05 08:02:33;;;;;;;36.92;23.70;;;;;;;19.49;64.32;101252.91;4953166;28;20483;-75
2022/06/05 08:04:59;;;;;;;39.67;25.17;;;;;;;19.53;63.66;101248.47;4952733;28;20031;-75
2022/06/05 08:07:27;;;;;;;38.03;22.90;;;;;;;19.56;62.94;101241.41;4952680;28;20082;-75
2022/06/05 08:09:52;;;;;;;38.42;24.15;;;;;;;19.60;63.44;101237.84;4952684;28;20015;-75
2022/06/05 08:12:21;;;;;;;38.30;25.27;;;;;;;19.65;64.17;101237.81;4952399;28;20440;-75
2022/06/05 08:14:49;;;;;;;39.47;26.13;;;;;;;19.70;63.04;101235.16;4951423;28;20538;-75
2022/06/05 08:17:17;;;;;;;41.42;26.23;;;;;;;19.76;64.31;101238.59;4951344;28;20030;-75
2022/06/05 08:19:43;;;;;;;41.20;25.90;;;;;;;19.81;64.22;101238.59;4954174;28;20027;-75
2022/06/05 08:22:11;;;;;;;43.08;27.63;;;;;;;19.86;64.03;101233.28;4952552;28;20034;-75
2022/06/05 08:24:37;;;;;;;40.15;27.52;;;;;;;19.90;63.14;101224.41;4954588;28;20020;-76
2022/06/05 08:27:02;;;;;;;42.17;27.48;;;;;;;19.98;65.20;101228.72;4950995;28;20053;-71
2022/06/05 08:29:28;;;;;;;41.65;26.30;;;;;;;20.07;65.07;101221.59;4952135;28;20035;-72
2022/06/05 08:31:55;;;;;;;44.80;28.58;;;;;;;20.11;63.09;101224.19;4952062;28;20023;-72
2022/06/05 08:34:21;;;;;;;43.60;28.55;;;;;;;20.18;64.62;101214.44;4953363;28;20023;-71
2022/06/05 08:36:47;;;;;;;44.10;27.90;;;;;;;20.23;63.59;101224.97;4941480;28;20054;-72
2022/06/05 08:41:56;;;;;;;47.28;30.52;;;;;;;20.33;62.33;101216.94;4952993;28;20038;-72
2022/06/05 08:44:38;;;;;;;46.97;29.63;;;;;;;20.36;63.19;101216.00;4952353;28;20023;-71
2022/06/05 08:47:20;;;;;;;46.20;29.23;;;;;;;20.38;64.83;101230.13;4952116;28;20510;-72
2022/06/05 08:49:53;;;;;;;47.42;29.75;;;;;;;20.41;63.08;101223.91;4953827;28;20019;-71
2022/06/05 08:52:38;;;;;;;50.95;30.10;;;;;;;20.43;63.01;101220.34;4951948;28;20031;-72
2022/06/05 08:55:29;;;;;;;40.67;28.63;;;;;;;20.44;61.88;101224.75;4951804;28;20031;-72
2022/06/05 08:57:59;;;;;;;48.05;30.33;;;;;;;20.47;63.88;101231.78;4951767;28;20142;-72
2022/06/05 09:00:31;;;;;;;49.50;31.27;;;;;;;20.49;64.42;101235.28;4952751;28;20035;-72
2022/06/05 09:03:07;;;;;;;52.63;31.60;;;;;;;20.52;64.90;101229.09;4953040;28;20427;-72
2022/06/05 09:05:39;;;;;;;50.20;31.65;;;;;;;20.51;63.33;101222.91;4952419;28;20027;-72
2022/06/05 09:08:18;;;;;;;48.47;31.65;;;;;;;20.50;63.75;101227.31;4946934;28;20058;-72
2022/06/05 09:10:49;;;;;;;47.95;31.85;;;;;;;20.52;64.94;101235.25;4952919;28;20062;-72
2022/06/05 09:13:19;;;;;;;49.60;32.00;;;;;;;20.51;63.56;101233.50;4952471;28;20067;-72
2022/06/05 09:15:54;;;;;;;52.08;32.63;;;;;;;20.52;64.39;101231.72;4950844;28;20072;-72
2022/06/05 09:18:21;;;;;;;50.00;32.70;;;;;;;20.51;64.37;101233.50;4952507;28;20532;-71
2022/06/05 09:20:49;;;;;;;49.47;31.70;;;;;;;20.50;65.64;101224.66;4952558;28;20027;-72
2022/06/05 09:23:41;;;;;;;49.35;31.92;;;;;;;20.53;64.15;101220.25;4952530;28;20035;-72
2022/06/05 09:26:22;;;;;;;57.85;33.38;;;;;;;20.51;64.15;101222.91;4928941;28;20039;-72
2022/06/05 09:28:47;;;;;;;49.17;31.98;;;;;;;20.52;65.67;101215.84;4950790;28;20561;-71
2022/06/05 09:31:31;;;;;;;46.90;31.75;;;;;;;20.51;65.04;101217.63;4952379;28;20035;-71
2022/06/05 09:34:01;;;;;;;45.17;31.05;;;;;;;20.53;68.14;101214.97;4952179;28;20117;-71
2022/06/05 09:36:29;;;;;;;47.70;31.08;;;;;;;20.54;66.63;101220.22;4951816;28;20031;-71
2022/06/05 09:38:59;;;;;;;49.05;32.10;;;;;;;20.54;66.65;101214.94;4952293;28;20031;-71
2022/06/05 09:41:27;;;;;;;53.55;32.70;;;;;;;20.54;66.90;101214.94;4952032;28;20037;-71
2022/06/05 09:44:02;;;;;;;51.33;32.90;;;;;;;20.55;66.58;101206.09;4950443;28;20153;-71
2022/06/05 09:46:49;;;;;;;52.72;33.28;;;;;;;20.56;66.68;101209.63;4952006;28;20291;-71
2022/06/05 09:49:18;;;;;;;46.45;31.77;;;;;;;20.54;66.57;101201.69;4950352;28;20495;-72
2022/06/05 09:51:45;;;;;;;46.78;32.05;;;;;;;20.54;65.45;101207.00;4952731;28;20031;-71
2022/06/05 09:54:32;;;;;;;46.75;31.48;;;;;;;20.54;65.80;101188.47;4938039;28;20710;-71
2022/06/05 10:00:28;;;;;;;52.42;33.00;;;;;;;20.55;65.21;101184.03;4951959;28;20046;-71
2022/06/05 10:03:00;;;;;;;46.65;32.35;;;;;;;20.52;67.70;101176.13;4942496;28;20442;-71
2022/06/05 10:05:32;;;;;;;45.83;30.77;;;;;;;20.51;67.55;101175.28;4951470;28;20090;-71
2022/06/05 10:08:15;;;;;;;43.08;30.85;;;;;;;20.53;67.42;101175.25;4949918;28;20038;-71
2022/06/05 10:10:42;;;;;;;43.85;31.33;;;;;;;20.52;68.79;101163.75;4952535;28;20403;-71
2022/06/05 10:13:22;;;;;;;46.42;31.90;;;;;;;20.55;67.51;101170.78;4951355;28;20031;-71
2022/06/05 10:16:10;;;;;;;45.08;31.15;;;;;;;20.55;68.36;101162.84;5076845;23;20041;-96
2022/06/05 10:18:57;;;;;;;51.35;33.40;;;;;;;20.53;68.16;101154.94;5003246;28;20025;-96
2022/06/05 10:21:30;;;;;;;46.95;32.42;;;;;;;20.56;68.34;101161.97;5026945;28;20076;-96
2022/06/05 10:24:24;;;;;;;45.80;32.65;;;;;;;20.58;69.39;101157.50;5033959;28;20022;-96
2022/06/05 10:26:56;;;;;;;47.90;33.63;;;;;;;20.55;69.93;101149.63;5036155;28;20045;-96
2022/06/05 10:29:42;;;;;;;47.67;33.63;;;;;;;20.57;67.86;101164.59;5032928;28;20018;-96
2022/06/05 10:32:19;;;;;;;49.25;33.70;;;;;;;20.58;70.85;101160.16;5019625;28;20008;-96
2022/06/05 10:35:03;;;;;;;53.17;34.63;;;;;;;20.56;68.40;101157.53;5036057;28;20033;-96
2022/06/05 10:37:52;;;;;;;51.40;35.42;;;;;;;20.60;69.98;101161.91;5036771;23;20141;-71
2022/06/05 10:40:21;;;;;;;54.38;35.80;;;;;;;20.59;70.56;101153.97;5011424;28;20038;-71
2022/06/05 10:42:52;;;;;;;49.53;35.17;;;;;;;20.58;69.38;101153.13;5012925;28;20105;-72
2022/06/05 10:45:39;;;;;;;52.33;35.50;;;;;;;20.58;71.58;101154.88;5014404;28;20025;-72
2022/06/05 10:48:14;;;;;;;52.00;35.22;;;;;;;20.59;69.64;101148.69;5012092;28;20029;-72
2022/06/05 10:50:59;;;;;;;55.63;35.85;;;;;;;20.59;72.69;101153.97;5009486;28;20080;-72
2022/06/05 10:53:43;;;;;;;53.83;37.08;;;;;;;20.59;73.75;101154.84;5012296;28;20124;-71
2022/06/05 10:56:33;;;;;;;58.20;37.85;;;;;;;20.56;73.84;101154.88;5012560;28;20057;-71
2022/06/05 10:59:35;;;;;;;61.15;37.92;;;;;;;20.54;74.20;101154.03;5013290;28;20045;-71
2022/06/05 11:02:25;;;;;;;56.42;36.20;;;;;;;20.52;75.66;101144.38;5013321;28;20700;-71
2022/06/05 11:05:16;;;;;;;56.63;39.50;;;;;;;20.49;75.19;101153.22;5012366;28;20401;-71
2022/06/05 11:08:05;;;;;;;54.80;38.10;;;;;;;20.45;76.18;101148.84;5013225;28;20018;-71
2022/06/05 11:13:43;;;;;;;55.50;38.30;;;;;;;20.36;77.31;101141.03;5009553;28;20433;-71
2022/06/05 11:16:17;;;;;;;61.42;38.17;;;;;;;20.33;76.94;101144.59;5013538;28;20036;-71
2022/06/05 11:19:08;;;;;;;60.08;39.15;;;;;;;20.32;76.56;101142.84;5006488;28;20031;-71
2022/06/05 11:21:35;;;;;;;66.28;38.25;;;;;;;20.25;78.72;101142.03;4993370;28;20030;-70
2022/06/05 11:24:05;;;;;;;67.13;40.15;;;;;;;20.20;79.22;101135.91;4993479;28;20077;-70
2022/06/05 11:26:47;;;;;;;65.00;40.50;;;;;;;20.22;79.14;101144.72;4992590;28;20034;-70
2022/06/05 11:29:54;;;;;;;62.35;39.60;;;;;;;20.24;78.01;101135.00;4993185;28;20486;-70
2022/06/05 11:32:19;;;;;;;55.55;38.55;;;;;;;20.18;79.98;101129.78;4955298;28;20034;-70
2022/06/05 11:35:14;;;;;;;53.67;37.58;;;;;;;20.15;78.20;101129.81;4987069;28;20508;-70
2022/06/05 11:38:21;;;;;;;56.97;37.65;;;;;;;20.15;77.75;101124.53;4985831;28;20467;-69
2022/06/05 11:41:04;;;;;;;58.63;36.90;;;;;;;20.06;79.57;101114.94;4983958;28;20073;-69
2022/06/05 11:43:39;;;;;;;59.78;38.22;;;;;;;19.98;81.40;101117.63;4992349;28;20034;-70
2022/06/05 11:46:08;;;;;;;63.67;38.08;;;;;;;19.96;82.33;101119.44;4982668;28;20145;-69
2022/06/05 11:48:49;;;;;;;60.22;38.08;;;;;;;19.94;82.23;101118.59;4985890;28;20411;-69